createdAt,value
2018-12-09T00:00:31.308Z,94993.00
2018-12-09T00:05:36.338Z,94987.00
2018-12-09T00:10:41.287Z,94934.00
2018-12-09T00:15:47.365Z,94924.00
2018-12-09T00:20:50.511Z,94921.00
2018-12-09T00:25:58.259Z,94897.00
2018-12-09T00:31:01.952Z,94871.00
2018-12-09T00:54:53.770Z,94851.00
2018-12-09T01:06:27.138Z,94842.00
2018-12-09T01:11:30.422Z,94820.00
2018-12-09T01:16:39.374Z,94793.00
2018-12-09T01:28:04.711Z,94798.00
2018-12-09T01:33:07.678Z,94794.00
2018-12-09T01:50:48.827Z,94737.00
2018-12-09T01:55:51.898Z,94737.00
2018-12-09T02:01:00.564Z,94748.00
2018-12-09T02:06:09.396Z,94746.00
2018-12-09T02:11:18.346Z,94736.00
2018-12-09T02:16:21.183Z,94711.00
2018-12-09T02:34:02.644Z,94699.00
2018-12-09T02:39:06.950Z,94661.00
2018-12-09T02:44:17.859Z,94689.00
2018-12-09T02:49:26.681Z,94658.00
2018-12-09T02:54:35.626Z,94659.00
2018-12-09T02:59:38.595Z,94677.00
2018-12-09T03:42:18.239Z,94664.00
2018-12-09T03:47:21.273Z,94651.00
2018-12-09T04:05:02.741Z,94615.00
2018-12-09T04:10:06.694Z,94604.00
2018-12-09T04:15:15.846Z,94597.00
2018-12-09T04:20:25.873Z,94600.00
2018-12-09T04:25:34.902Z,94591.00
2018-12-09T04:30:37.798Z,94588.00
2018-12-09T04:48:20.001Z,94524.00
2018-12-09T04:53:22.924Z,94559.00
2018-12-09T04:58:31.741Z,94576.00
2018-12-09T05:03:40.718Z,94607.00
2018-12-09T05:08:49.550Z,94575.00
2018-12-09T05:13:52.367Z,94602.00
2018-12-09T05:31:33.924Z,94632.00
2018-12-09T05:49:17.543Z,94666.00
2018-12-09T05:54:20.460Z,94673.00
2018-12-09T05:59:29.468Z,94701.00
2018-12-09T06:04:38.374Z,94725.00
2018-12-09T06:09:47.258Z,94731.00
2018-12-09T06:14:50.120Z,94731.00
2018-12-09T06:32:32.870Z,94741.00
2018-12-09T06:50:28.379Z,94746.00
2018-12-09T06:55:31.324Z,94770.00
2018-12-09T07:00:39.995Z,94760.00
2018-12-09T07:05:48.695Z,94794.00
2018-12-09T07:10:57.731Z,94782.00
2018-12-09T07:16:00.662Z,94805.00
2018-12-09T07:33:42.436Z,94835.00
2018-12-09T07:38:45.627Z,94828.00
2018-12-09T07:43:49.203Z,94848.00
2018-12-09T07:48:52.411Z,94845.00
2018-12-09T07:53:56.252Z,94838.00
2018-12-09T07:59:02.554Z,94849.00
2018-12-09T08:04:10.474Z,94864.00
2018-12-09T08:09:16.663Z,94867.00
2018-12-09T08:14:22.073Z,94863.00
2018-12-09T08:19:25.101Z,94739.00
2018-12-09T08:24:29.830Z,94888.00
2018-12-09T08:29:34.230Z,94901.00
2018-12-09T08:34:40.155Z,94879.00
2018-12-09T08:39:44.479Z,94908.00
2018-12-09T08:44:53.430Z,94898.00
2018-12-09T08:49:56.722Z,94893.00
2018-12-09T08:55:02.434Z,94884.00
2018-12-09T09:00:08.544Z,94907.00
2018-12-09T09:05:13.305Z,94885.00
2018-12-09T09:10:22.022Z,94918.00
2018-12-09T09:15:25.282Z,94906.00
2018-12-09T09:20:28.682Z,94905.00
2018-12-09T09:25:32.201Z,94925.00
2018-12-09T09:30:35.934Z,94948.00
2018-12-09T09:35:41.803Z,94941.00
2018-12-09T09:40:48.365Z,94932.00
2018-12-09T09:45:52.203Z,94970.00
2018-12-09T09:50:55.691Z,94961.00
2018-12-09T09:56:04.712Z,94980.00
2018-12-09T10:01:11.397Z,94903.00
2018-12-09T10:06:16.560Z,94980.00
2018-12-09T10:11:23.463Z,94957.00
2018-12-09T10:16:28.860Z,94952.00
2018-12-09T10:21:34.952Z,94969.00
2018-12-09T10:26:39.076Z,94964.00
2018-12-09T10:31:46.112Z,94940.00
2018-12-09T10:36:51.444Z,94936.00
2018-12-09T10:42:00.965Z,94957.00
2018-12-09T10:47:09.931Z,94951.00
2018-12-09T10:52:18.725Z,94912.00
2018-12-09T10:57:28.503Z,94934.00
2018-12-09T11:02:31.490Z,94940.00
2018-12-09T11:07:42.631Z,94938.00
2018-12-09T11:12:51.441Z,94942.00
2018-12-09T11:18:04.212Z,94947.00
2018-12-09T11:23:08.025Z,94933.00
2018-12-09T11:28:14.775Z,94888.00
2018-12-09T11:33:24.196Z,94922.00
2018-12-09T11:38:31.247Z,94923.00
2018-12-09T11:43:44.565Z,94930.00
2018-12-09T11:48:54.527Z,94918.00
2018-12-09T11:54:04.222Z,94923.00
2018-12-09T11:59:08.868Z,94910.00
2018-12-09T12:04:18.815Z,94935.00
2018-12-09T12:09:28.497Z,94947.00
2018-12-09T12:14:37.692Z,94937.00
2018-12-09T12:38:28.707Z,94931.00
2018-12-09T12:49:55.739Z,94945.00
2018-12-09T12:55:00.823Z,94968.00
2018-12-09T13:00:04.479Z,94957.00
2018-12-09T13:05:09.888Z,94957.00
2018-12-09T13:10:13.128Z,94956.00
2018-12-09T13:15:16.339Z,94956.00
2018-12-09T13:20:19.418Z,94955.00
2018-12-09T13:25:24.422Z,94940.00
2018-12-09T13:30:27.942Z,94954.00
2018-12-09T13:35:34.108Z,94951.00
2018-12-09T13:40:42.868Z,94949.00
2018-12-09T13:45:51.643Z,94941.00
2018-12-09T14:15:59.229Z,94972.00
2018-12-09T14:21:02.288Z,94946.00
2018-12-09T14:26:11.326Z,94939.00
2018-12-09T14:31:21.132Z,94960.00
2018-12-09T14:36:29.987Z,94959.00
2018-12-09T14:41:33.658Z,94952.00
2018-12-09T15:24:12.797Z,94974.00
2018-12-09T15:29:15.790Z,94985.00
2018-12-09T15:34:59.256Z,94969.00
2018-12-09T15:40:10.199Z,94978.00
2018-12-09T15:45:19.034Z,94980.00
2018-12-09T15:50:22.498Z,95002.00
2018-12-09T15:55:30.023Z,95001.00
2018-12-09T16:00:41.424Z,94998.00
2018-12-09T16:05:46.030Z,95016.00
2018-12-09T16:10:49.065Z,95018.00
2018-12-09T16:15:53.018Z,94983.00
2018-12-09T16:21:00.879Z,95044.00
2018-12-09T16:26:07.900Z,95027.00
2018-12-09T16:31:11.800Z,95046.00
2018-12-09T16:36:15.851Z,95044.00
2018-12-09T16:41:25.192Z,95067.00
2018-12-09T16:46:34.776Z,95048.00
2018-12-09T17:16:41.558Z,95123.00
2018-12-09T17:21:44.622Z,95136.00
2018-12-09T17:33:13.659Z,95140.00
2018-12-09T17:38:16.680Z,95154.00
2018-12-09T17:43:20.738Z,95156.00
2018-12-09T17:48:37.604Z,95175.00
2018-12-09T17:53:40.795Z,95193.00
2018-12-09T17:58:47.586Z,95192.00
2018-12-09T18:03:51.671Z,95171.00
2018-12-09T18:09:04.637Z,95212.00
2018-12-09T18:14:17.439Z,95210.00
2018-12-09T18:19:27.380Z,95221.00
2018-12-09T18:24:33.287Z,95226.00
2018-12-09T18:29:39.459Z,95252.00
2018-12-09T18:34:48.521Z,95277.00
2018-12-09T18:39:52.388Z,95278.00
2018-12-09T19:16:35.670Z,95348.00
2018-12-09T19:21:45.916Z,95349.00
2018-12-09T19:58:07.784Z,95403.00
2018-12-09T20:03:18.450Z,95413.00
2018-12-09T20:39:41.302Z,95479.00
2018-12-09T20:44:55.004Z,95498.00
2018-12-09T20:50:08.814Z,95515.00
2018-12-09T20:55:18.728Z,95514.00
2018-12-09T21:00:22.199Z,95539.00
2018-12-09T21:05:32.010Z,95537.00
2018-12-09T21:10:41.744Z,95538.00
2018-12-09T21:15:52.007Z,95545.00
2018-12-09T21:21:08.640Z,95553.00
2018-12-09T21:26:17.743Z,95559.00
2018-12-09T22:21:24.785Z,95635.00
2018-12-09T22:26:33.723Z,95639.00
2018-12-09T23:02:57.702Z,95688.00
2018-12-09T23:08:06.609Z,95696.00
2018-12-09T23:25:41.331Z,95722.00
2018-12-09T23:43:17.107Z,95738.00
2018-12-09T23:48:26.042Z,95746.00
2018-12-09T23:53:34.691Z,95767.00
